sensor_id;sensor_type;location;lat;lon;timestamp;P1;durP1;ratioP1;P2;durP2;ratioP2
21018;SDS011;10667;51.056;3.732;2023-05-10T00:00:52;28.38;;;14.75;;
21018;SDS011;10667;51.056;3.732;2023-05-10T00:03:17;30.60;;;15.65;;
21018;SDS011;10667;51.056;3.732;2023-05-10T00:05:43;30.33;;;15.63;;
21018;SDS011;10667;51.056;3.732;2023-05-10T00:08:09;28.65;;;15.50;;
21018;SDS011;10667;51.056;3.732;2023-05-10T00:10:34;26.15;;;14.77;;
21018;SDS011;10667;51.056;3.732;2023-05-10T00:13:01;30.90;;;15.55;;
21018;SDS011;10667;51.056;3.732;2023-05-10T00:15:26;28.80;;;15.63;;
21018;SDS011;10667;51.056;3.732;2023-05-10T00:17:52;28.52;;;15.05;;
21018;SDS011;10667;51.056;3.732;2023-05-10T00:20:18;27.80;;;14.65;;
21018;SDS011;10667;51.056;3.732;2023-05-10T00:22:43;32.58;;;16.33;;
21018;SDS011;10667;51.056;3.732;2023-05-10T00:25:09;28.23;;;16.05;;
21018;SDS011;10667;51.056;3.732;2023-05-10T00:27:35;36.05;;;17.70;;
21018;SDS011;10667;51.056;3.732;2023-05-10T00:30:01;26.25;;;16.48;;
21018;SDS011;10667;51.056;3.732;2023-05-10T00:32:26;33.20;;;17.80;;
21018;SDS011;10667;51.056;3.732;2023-05-10T00:34:52;31.30;;;19.30;;
21018;SDS011;10667;51.056;3.732;2023-05-10T00:37:17;36.45;;;18.42;;
21018;SDS011;10667;51.056;3.732;2023-05-10T00:39:43;36.75;;;19.60;;
21018;SDS011;10667;51.056;3.732;2023-05-10T00:42:09;35.95;;;19.55;;
21018;SDS011;10667;51.056;3.732;2023-05-10T00:44:35;40.28;;;21.13;;
21018;SDS011;10667;51.056;3.732;2023-05-10T00:47:00;38.20;;;22.13;;
21018;SDS011;10667;51.056;3.732;2023-05-10T00:49:26;36.63;;;20.63;;
21018;SDS011;10667;51.056;3.732;2023-05-10T00:51:52;38.97;;;21.33;;
21018;SDS011;10667;51.056;3.732;2023-05-10T00:54:18;45.50;;;22.10;;
21018;SDS011;10667;51.056;3.732;2023-05-10T00:56:43;38.40;;;22.33;;
21018;SDS011;10667;51.056;3.732;2023-05-10T00:59:14;41.25;;;21.65;;
21018;SDS011;10667;51.056;3.732;2023-05-10T01:01:41;43.03;;;21.85;;
21018;SDS011;10667;51.056;3.732;2023-05-10T01:04:08;37.20;;;21.48;;
21018;SDS011;10667;51.056;3.732;2023-05-10T01:06:35;38.10;;;21.88;;
21018;SDS011;10667;51.056;3.732;2023-05-10T01:09:01;36.00;;;20.95;;
21018;SDS011;10667;51.056;3.732;2023-05-10T01:11:27;38.45;;;22.02;;
21018;SDS011;10667;51.056;3.732;2023-05-10T01:13:55;41.13;;;22.77;;
21018;SDS011;10667;51.056;3.732;2023-05-10T01:16:22;41.65;;;22.75;;
21018;SDS011;10667;51.056;3.732;2023-05-10T01:18:48;43.53;;;24.40;;
21018;SDS011;10667;51.056;3.732;2023-05-10T01:21:20;39.72;;;23.88;;
21018;SDS011;10667;51.056;3.732;2023-05-10T01:27:25;35.10;;;21.20;;
21018;SDS011;10667;51.056;3.732;2023-05-10T01:40:29;41.45;;;23.63;;
21018;SDS011;10667;51.056;3.732;2023-05-10T01:43:01;35.67;;;22.73;;
21018;SDS011;10667;51.056;3.732;2023-05-10T01:45:30;40.03;;;24.83;;
21018;SDS011;10667;51.056;3.732;2023-05-10T01:48:16;41.22;;;23.23;;
21018;SDS011;10667;51.056;3.732;2023-05-10T01:50:45;41.17;;;24.92;;
21018;SDS011;10667;51.056;3.732;2023-05-10T01:53:11;38.35;;;24.67;;
21018;SDS011;10667;51.056;3.732;2023-05-10T01:55:41;39.97;;;25.05;;
21018;SDS011;10667;51.056;3.732;2023-05-10T01:58:15;41.83;;;25.00;;
21018;SDS011;10667;51.056;3.732;2023-05-10T02:00:45;41.97;;;25.38;;
21018;SDS011;10667;51.056;3.732;2023-05-10T02:03:12;37.47;;;23.80;;
21018;SDS011;10667;51.056;3.732;2023-05-10T02:05:39;38.45;;;24.58;;
21018;SDS011;10667;51.056;3.732;2023-05-10T02:08:09;44.15;;;24.20;;
21018;SDS011;10667;51.056;3.732;2023-05-10T02:10:35;39.67;;;23.30;;
21018;SDS011;10667;51.056;3.732;2023-05-10T02:13:02;37.15;;;22.65;;
21018;SDS011;10667;51.056;3.732;2023-05-10T02:15:31;39.38;;;23.40;;
21018;SDS011;10667;51.056;3.732;2023-05-10T02:17:58;37.28;;;22.38;;
21018;SDS011;10667;51.056;3.732;2023-05-10T02:20:27;40.25;;;22.83;;
21018;SDS011;10667;51.056;3.732;2023-05-10T02:22:54;38.17;;;22.85;;
21018;SDS011;10667;51.056;3.732;2023-05-10T02:25:21;40.60;;;23.38;;
21018;SDS011;10667;51.056;3.732;2023-05-10T02:27:48;41.50;;;22.88;;
21018;SDS011;10667;51.056;3.732;2023-05-10T02:30:15;38.22;;;21.67;;
21018;SDS011;10667;51.056;3.732;2023-05-10T02:32:42;39.20;;;22.15;;
21018;SDS011;10667;51.056;3.732;2023-05-10T02:35:09;37.33;;;21.83;;
21018;SDS011;10667;51.056;3.732;2023-05-10T02:37:36;35.42;;;22.13;;
21018;SDS011;10667;51.056;3.732;2023-05-10T02:40:03;37.25;;;22.40;;
21018;SDS011;10667;51.056;3.732;2023-05-10T02:42:31;35.95;;;20.67;;
21018;SDS011;10667;51.056;3.732;2023-05-10T02:45:00;35.65;;;21.42;;
21018;SDS011;10667;51.056;3.732;2023-05-10T02:47:28;32.22;;;19.77;;
21018;SDS011;10667;51.056;3.732;2023-05-10T02:49:54;30.70;;;18.90;;
21018;SDS011;10667;51.056;3.732;2023-05-10T02:52:24;34.75;;;21.23;;
21018;SDS011;10667;51.056;3.732;2023-05-10T02:54:55;30.27;;;19.08;;
21018;SDS011;10667;51.056;3.732;2023-05-10T02:57:25;34.15;;;18.98;;
21018;SDS011;10667;51.056;3.732;2023-05-10T02:59:53;28.52;;;18.63;;
21018;SDS011;10667;51.056;3.732;2023-05-10T03:02:20;30.85;;;18.70;;
21018;SDS011;10667;51.056;3.732;2023-05-10T03:04:46;34.22;;;19.10;;
21018;SDS011;10667;51.056;3.732;2023-05-10T03:07:12;30.98;;;18.65;;
21018;SDS011;10667;51.056;3.732;2023-05-10T03:09:38;34.05;;;19.42;;
21018;SDS011;10667;51.056;3.732;2023-05-10T03:12:15;31.08;;;18.63;;
21018;SDS011;10667;51.056;3.732;2023-05-10T03:18:01;30.80;;;18.42;;
21018;SDS011;10667;51.056;3.732;2023-05-10T03:20:36;28.95;;;17.60;;
21018;SDS011;10667;51.056;3.732;2023-05-10T03:26:25;34.40;;;19.15;;
21018;SDS011;10667;51.056;3.732;2023-05-10T03:28:53;27.27;;;17.25;;
21018;SDS011;10667;51.056;3.732;2023-05-10T03:31:20;27.77;;;17.25;;
21018;SDS011;10667;51.056;3.732;2023-05-10T03:33:46;30.10;;;17.63;;
21018;SDS011;10667;51.056;3.732;2023-05-10T03:36:13;27.73;;;18.02;;
21018;SDS011;10667;51.056;3.732;2023-05-10T03:38:39;28.88;;;18.77;;
21018;SDS011;10667;51.056;3.732;2023-05-10T03:41:04;27.33;;;18.05;;
21018;SDS011;10667;51.056;3.732;2023-05-10T03:43:30;27.17;;;18.10;;
21018;SDS011;10667;51.056;3.732;2023-05-10T03:45:55;30.38;;;18.30;;
21018;SDS011;10667;51.056;3.732;2023-05-10T03:48:21;30.42;;;17.30;;
21018;SDS011;10667;51.056;3.732;2023-05-10T03:50:47;30.63;;;19.27;;
21018;SDS011;10667;51.056;3.732;2023-05-10T03:53:14;30.73;;;19.00;;
21018;SDS011;10667;51.056;3.732;2023-05-10T03:55:40;30.92;;;18.55;;
21018;SDS011;10667;51.056;3.732;2023-05-10T03:58:06;33.90;;;19.90;;
21018;SDS011;10667;51.056;3.732;2023-05-10T04:00:31;32.45;;;18.92;;
21018;SDS011;10667;51.056;3.732;2023-05-10T04:02:57;31.23;;;18.95;;
21018;SDS011;10667;51.056;3.732;2023-05-10T04:05:23;35.60;;;21.23;;
21018;SDS011;10667;51.056;3.732;2023-05-10T04:07:49;36.42;;;22.05;;
21018;SDS011;10667;51.056;3.732;2023-05-10T04:10:16;37.92;;;22.42;;
21018;SDS011;10667;51.056;3.732;2023-05-10T04:12:41;40.45;;;22.77;;
21018;SDS011;10667;51.056;3.732;2023-05-10T04:15:07;38.67;;;21.92;;
21018;SDS011;10667;51.056;3.732;2023-05-10T04:17:33;35.03;;;21.30;;
21018;SDS011;10667;51.056;3.732;2023-05-10T04:19:59;41.25;;;24.17;;
21018;SDS011;10667;51.056;3.732;2023-05-10T04:22:24;42.78;;;25.13;;
21018;SDS011;10667;51.056;3.732;2023-05-10T04:24:50;47.75;;;26.25;;
21018;SDS011;10667;51.056;3.732;2023-05-10T04:27:16;41.03;;;25.50;;
21018;SDS011;10667;51.056;3.732;2023-05-10T04:29:41;45.58;;;25.67;;
21018;SDS011;10667;51.056;3.732;2023-05-10T04:32:07;48.22;;;27.77;;
21018;SDS011;10667;51.056;3.732;2023-05-10T04:34:35;49.08;;;26.60;;
21018;SDS011;10667;51.056;3.732;2023-05-10T04:37:01;39.83;;;25.52;;
21018;SDS011;10667;51.056;3.732;2023-05-10T04:39:26;43.85;;;25.65;;
21018;SDS011;10667;51.056;3.732;2023-05-10T04:41:52;49.25;;;27.65;;
21018;SDS011;10667;51.056;3.732;2023-05-10T04:44:18;46.80;;;27.30;;
21018;SDS011;10667;51.056;3.732;2023-05-10T04:46:43;45.60;;;26.20;;
21018;SDS011;10667;51.056;3.732;2023-05-10T04:49:09;47.22;;;27.63;;
21018;SDS011;10667;51.056;3.732;2023-05-10T04:51:34;46.42;;;27.35;;
21018;SDS011;10667;51.056;3.732;2023-05-10T04:54:00;45.65;;;27.50;;
21018;SDS011;10667;51.056;3.732;2023-05-10T04:56:26;42.55;;;26.75;;
21018;SDS011;10667;51.056;3.732;2023-05-10T04:58:51;43.92;;;25.88;;
21018;SDS011;10667;51.056;3.732;2023-05-10T05:01:17;50.70;;;27.38;;
21018;SDS011;10667;51.056;3.732;2023-05-10T05:03:42;45.78;;;27.88;;
21018;SDS011;10667;51.056;3.732;2023-05-10T05:06:08;46.83;;;27.77;;
21018;SDS011;10667;51.056;3.732;2023-05-10T05:08:34;50.63;;;28.40;;
21018;SDS011;10667;51.056;3.732;2023-05-10T05:10:59;47.38;;;27.38;;
21018;SDS011;10667;51.056;3.732;2023-05-10T05:13:25;54.20;;;28.80;;
21018;SDS011;10667;51.056;3.732;2023-05-10T05:15:50;50.75;;;27.58;;
21018;SDS011;10667;51.056;3.732;2023-05-10T05:18:16;47.10;;;26.88;;
21018;SDS011;10667;51.056;3.732;2023-05-10T05:20:42;52.63;;;29.75;;
21018;SDS011;10667;51.056;3.732;2023-05-10T05:23:07;51.08;;;28.38;;
21018;SDS011;10667;51.056;3.732;2023-05-10T05:25:33;48.05;;;27.25;;
21018;SDS011;10667;51.056;3.732;2023-05-10T05:27:59;50.33;;;27.50;;
21018;SDS011;10667;51.056;3.732;2023-05-10T05:30:24;52.67;;;28.95;;
21018;SDS011;10667;51.056;3.732;2023-05-10T05:32:50;51.08;;;29.88;;
21018;SDS011;10667;51.056;3.732;2023-05-10T05:35:16;44.38;;;26.90;;
21018;SDS011;10667;51.056;3.732;2023-05-10T05:37:41;52.15;;;28.35;;
21018;SDS011;10667;51.056;3.732;2023-05-10T05:40:07;51.55;;;29.00;;
21018;SDS011;10667;51.056;3.732;2023-05-10T05:42:33;51.17;;;28.73;;
21018;SDS011;10667;51.056;3.732;2023-05-10T05:44:59;50.13;;;27.88;;
21018;SDS011;10667;51.056;3.732;2023-05-10T05:47:24;46.58;;;27.52;;
21018;SDS011;10667;51.056;3.732;2023-05-10T05:49:50;43.42;;;26.80;;
21018;SDS011;10667;51.056;3.732;2023-05-10T05:52:16;48.47;;;27.63;;
21018;SDS011;10667;51.056;3.732;2023-05-10T05:54:42;41.92;;;26.17;;
21018;SDS011;10667;51.056;3.732;2023-05-10T05:57:08;39.80;;;25.63;;
21018;SDS011;10667;51.056;3.732;2023-05-10T05:59:34;38.80;;;23.90;;
21018;SDS011;10667;51.056;3.732;2023-05-10T06:01:59;46.95;;;26.67;;
21018;SDS011;10667;51.056;3.732;2023-05-10T06:04:25;49.40;;;26.65;;
21018;SDS011;10667;51.056;3.732;2023-05-10T06:06:51;42.15;;;25.95;;
21018;SDS011;10667;51.056;3.732;2023-05-10T06:09:16;45.00;;;27.15;;
21018;SDS011;10667;51.056;3.732;2023-05-10T06:11:42;44.13;;;28.00;;
21018;SDS011;10667;51.056;3.732;2023-05-10T06:14:08;53.95;;;30.15;;
21018;SDS011;10667;51.056;3.732;2023-05-10T06:16:34;47.33;;;29.65;;
21018;SDS011;10667;51.056;3.732;2023-05-10T06:19:00;49.67;;;29.60;;
21018;SDS011;10667;51.056;3.732;2023-05-10T06:21:25;41.55;;;27.92;;
21018;SDS011;10667;51.056;3.732;2023-05-10T06:23:51;49.03;;;29.85;;
21018;SDS011;10667;51.056;3.732;2023-05-10T06:26:17;47.85;;;30.00;;
21018;SDS011;10667;51.056;3.732;2023-05-10T06:28:42;48.00;;;29.77;;
21018;SDS011;10667;51.056;3.732;2023-05-10T06:31:08;44.88;;;28.63;;
21018;SDS011;10667;51.056;3.732;2023-05-10T06:33:36;51.90;;;30.20;;
21018;SDS011;10667;51.056;3.732;2023-05-10T06:36:01;46.65;;;29.00;;
21018;SDS011;10667;51.056;3.732;2023-05-10T06:38:27;52.05;;;28.73;;
21018;SDS011;10667;51.056;3.732;2023-05-10T06:40:53;59.00;;;39.95;;
21018;SDS011;10667;51.056;3.732;2023-05-10T06:43:19;55.17;;;35.10;;
21018;SDS011;10667;51.056;3.732;2023-05-10T06:45:44;54.90;;;31.10;;
21018;SDS011;10667;51.056;3.732;2023-05-10T06:48:10;55.08;;;31.77;;
21018;SDS011;10667;51.056;3.732;2023-05-10T06:50:36;51.38;;;32.97;;
21018;SDS011;10667;51.056;3.732;2023-05-10T06:53:01;52.97;;;31.67;;
21018;SDS011;10667;51.056;3.732;2023-05-10T06:55:27;57.33;;;33.28;;
21018;SDS011;10667;51.056;3.732;2023-05-10T06:57:54;55.55;;;32.40;;
21018;SDS011;10667;51.056;3.732;2023-05-10T07:00:19;58.25;;;32.65;;
21018;SDS011;10667;51.056;3.732;2023-05-10T07:02:45;51.25;;;30.83;;
21018;SDS011;10667;51.056;3.732;2023-05-10T07:05:12;47.78;;;29.80;;
21018;SDS011;10667;51.056;3.732;2023-05-10T07:07:38;45.47;;;27.35;;
21018;SDS011;10667;51.056;3.732;2023-05-10T07:10:04;47.85;;;29.73;;
21018;SDS011;10667;51.056;3.732;2023-05-10T07:12:30;52.22;;;32.03;;
21018;SDS011;10667;51.056;3.732;2023-05-10T07:14:56;51.58;;;30.08;;
21018;SDS011;10667;51.056;3.732;2023-05-10T07:17:22;48.63;;;28.58;;
21018;SDS011;10667;51.056;3.732;2023-05-10T07:19:47;49.60;;;29.52;;
21018;SDS011;10667;51.056;3.732;2023-05-10T07:22:13;50.60;;;28.40;;
21018;SDS011;10667;51.056;3.732;2023-05-10T07:24:40;51.05;;;28.45;;
21018;SDS011;10667;51.056;3.732;2023-05-10T07:27:05;45.50;;;28.08;;
21018;SDS011;10667;51.056;3.732;2023-05-10T07:29:31;41.65;;;26.98;;
21018;SDS011;10667;51.056;3.732;2023-05-10T07:31:56;45.63;;;26.65;;
21018;SDS011;10667;51.056;3.732;2023-05-10T07:34:22;45.90;;;26.85;;
21018;SDS011;10667;51.056;3.732;2023-05-10T07:36:48;40.58;;;24.80;;
21018;SDS011;10667;51.056;3.732;2023-05-10T07:39:13;41.83;;;25.83;;
21018;SDS011;10667;51.056;3.732;2023-05-10T07:41:39;44.72;;;26.00;;
21018;SDS011;10667;51.056;3.732;2023-05-10T07:44:05;39.28;;;25.38;;
21018;SDS011;10667;51.056;3.732;2023-05-10T07:46:31;39.13;;;24.55;;
21018;SDS011;10667;51.056;3.732;2023-05-10T07:48:57;41.55;;;25.13;;
21018;SDS011;10667;51.056;3.732;2023-05-10T07:51:22;40.80;;;27.13;;
21018;SDS011;10667;51.056;3.732;2023-05-10T07:53:48;38.85;;;24.55;;
21018;SDS011;10667;51.056;3.732;2023-05-10T07:58:52;42.55;;;25.27;;
21018;SDS011;10667;51.056;3.732;2023-05-10T08:01:18;39.45;;;24.15;;
21018;SDS011;10667;51.056;3.732;2023-05-10T08:03:44;36.55;;;23.08;;
21018;SDS011;10667;51.056;3.732;2023-05-10T08:06:10;43.55;;;23.58;;
21018;SDS011;10667;51.056;3.732;2023-05-10T08:08:36;40.80;;;24.10;;
21018;SDS011;10667;51.056;3.732;2023-05-10T08:11:01;39.58;;;25.08;;
21018;SDS011;10667;51.056;3.732;2023-05-10T08:13:28;37.22;;;23.17;;
21018;SDS011;10667;51.056;3.732;2023-05-10T08:15:54;37.47;;;23.10;;
21018;SDS011;10667;51.056;3.732;2023-05-10T08:18:20;40.28;;;23.25;;
21018;SDS011;10667;51.056;3.732;2023-05-10T08:20:46;38.60;;;22.48;;
21018;SDS011;10667;51.056;3.732;2023-05-10T08:23:14;37.40;;;23.05;;
21018;SDS011;10667;51.056;3.732;2023-05-10T08:25:40;43.50;;;25.00;;
21018;SDS011;10667;51.056;3.732;2023-05-10T08:28:06;39.47;;;23.05;;
21018;SDS011;10667;51.056;3.732;2023-05-10T08:30:31;36.05;;;22.80;;
21018;SDS011;10667;51.056;3.732;2023-05-10T08:32:57;36.60;;;22.95;;
21018;SDS011;10667;51.056;3.732;2023-05-10T08:35:23;33.67;;;22.08;;
21018;SDS011;10667;51.056;3.732;2023-05-10T08:37:50;34.25;;;22.75;;
21018;SDS011;10667;51.056;3.732;2023-05-10T08:40:16;37.00;;;22.67;;
21018;SDS011;10667;51.056;3.732;2023-05-10T08:42:48;38.15;;;21.52;;
21018;SDS011;10667;51.056;3.732;2023-05-10T08:45:21;36.10;;;22.63;;
21018;SDS011;10667;51.056;3.732;2023-05-10T08:47:49;40.53;;;22.17;;
21018;SDS011;10667;51.056;3.732;2023-05-10T08:50:17;39.10;;;22.70;;
21018;SDS011;10667;51.056;3.732;2023-05-10T08:52:45;34.58;;;19.90;;
21018;SDS011;10667;51.056;3.732;2023-05-10T08:55:14;36.47;;;20.92;;
21018;SDS011;10667;51.056;3.732;2023-05-10T08:57:40;39.95;;;21.38;;
21018;SDS011;10667;51.056;3.732;2023-05-10T09:00:06;36.28;;;19.98;;
21018;SDS011;10667;51.056;3.732;2023-05-10T09:02:33;39.20;;;21.33;;
21018;SDS011;10667;51.056;3.732;2023-05-10T09:04:59;32.20;;;19.38;;
21018;SDS011;10667;51.056;3.732;2023-05-10T09:07:25;36.65;;;20.38;;
21018;SDS011;10667;51.056;3.732;2023-05-10T09:09:51;31.00;;;20.13;;
21018;SDS011;10667;51.056;3.732;2023-05-10T09:12:17;35.47;;;21.55;;
21018;SDS011;10667;51.056;3.732;2023-05-10T09:14:43;34.67;;;19.13;;
21018;SDS011;10667;51.056;3.732;2023-05-10T09:17:10;34.55;;;19.88;;
21018;SDS011;10667;51.056;3.732;2023-05-10T09:19:36;34.45;;;19.50;;
21018;SDS011;10667;51.056;3.732;2023-05-10T09:22:02;30.88;;;20.15;;
21018;SDS011;10667;51.056;3.732;2023-05-10T09:24:29;28.95;;;19.27;;
21018;SDS011;10667;51.056;3.732;2023-05-10T09:26:56;30.63;;;19.02;;
21018;SDS011;10667;51.056;3.732;2023-05-10T09:29:23;33.40;;;19.55;;
21018;SDS011;10667;51.056;3.732;2023-05-10T09:31:51;35.10;;;18.60;;
21018;SDS011;10667;51.056;3.732;2023-05-10T09:34:29;38.42;;;21.17;;
21018;SDS011;10667;51.056;3.732;2023-05-10T09:36:56;33.00;;;19.00;;
21018;SDS011;10667;51.056;3.732;2023-05-10T09:42:02;30.58;;;19.27;;
21018;SDS011;10667;51.056;3.732;2023-05-10T09:44:29;29.92;;;18.73;;
21018;SDS011;10667;51.056;3.732;2023-05-10T09:46:56;30.75;;;18.67;;
21018;SDS011;10667;51.056;3.732;2023-05-10T09:49:22;30.52;;;17.63;;
21018;SDS011;10667;51.056;3.732;2023-05-10T09:51:57;33.33;;;18.20;;
21018;SDS011;10667;51.056;3.732;2023-05-10T09:54:29;29.17;;;17.15;;
21018;SDS011;10667;51.056;3.732;2023-05-10T09:56:55;30.67;;;17.15;;
21018;SDS011;10667;51.056;3.732;2023-05-10T09:59:21;24.48;;;16.48;;
21018;SDS011;10667;51.056;3.732;2023-05-10T10:01:50;24.60;;;15.52;;
21018;SDS011;10667;51.056;3.732;2023-05-10T10:04:16;25.17;;;14.70;;
21018;SDS011;10667;51.056;3.732;2023-05-10T10:06:42;23.25;;;15.57;;
21018;SDS011;10667;51.056;3.732;2023-05-10T10:09:09;25.25;;;15.82;;
21018;SDS011;10667;51.056;3.732;2023-05-10T10:11:35;21.85;;;14.55;;
21018;SDS011;10667;51.056;3.732;2023-05-10T10:14:02;20.48;;;13.82;;
21018;SDS011;10667;51.056;3.732;2023-05-10T10:16:31;23.67;;;14.60;;
21018;SDS011;10667;51.056;3.732;2023-05-10T10:18:57;22.15;;;13.88;;
21018;SDS011;10667;51.056;3.732;2023-05-10T10:21:23;23.08;;;15.02;;
21018;SDS011;10667;51.056;3.732;2023-05-10T10:23:49;21.25;;;13.27;;
21018;SDS011;10667;51.056;3.732;2023-05-10T10:26:16;18.88;;;12.27;;
21018;SDS011;10667;51.056;3.732;2023-05-10T10:34:41;20.48;;;12.20;;
21018;SDS011;10667;51.056;3.732;2023-05-10T10:37:07;22.40;;;13.10;;
21018;SDS011;10667;51.056;3.732;2023-05-10T10:39:33;26.17;;;13.82;;
21018;SDS011;10667;51.056;3.732;2023-05-10T10:42:01;18.98;;;12.88;;
21018;SDS011;10667;51.056;3.732;2023-05-10T10:49:48;19.65;;;13.25;;
21018;SDS011;10667;51.056;3.732;2023-05-10T10:55:05;19.27;;;13.25;;
21018;SDS011;10667;51.056;3.732;2023-05-10T11:08:07;24.42;;;15.50;;
21018;SDS011;10667;51.056;3.732;2023-05-10T11:10:37;20.65;;;14.38;;
21018;SDS011;10667;51.056;3.732;2023-05-10T11:18:01;25.90;;;16.80;;
21018;SDS011;10667;51.056;3.732;2023-05-10T11:20:52;27.77;;;18.08;;
21018;SDS011;10667;51.056;3.732;2023-05-10T11:23:29;25.15;;;17.83;;
21018;SDS011;10667;51.056;3.732;2023-05-10T11:26:13;27.63;;;19.40;;
21018;SDS011;10667;51.056;3.732;2023-05-10T11:28:45;33.95;;;22.30;;
21018;SDS011;10667;51.056;3.732;2023-05-10T11:31:16;31.25;;;21.63;;
21018;SDS011;10667;51.056;3.732;2023-05-10T11:33:46;36.38;;;23.75;;
21018;SDS011;10667;51.056;3.732;2023-05-10T11:36:17;31.00;;;22.65;;
21018;SDS011;10667;51.056;3.732;2023-05-10T11:38:45;31.45;;;23.83;;
21018;SDS011;10667;51.056;3.732;2023-05-10T11:41:12;28.88;;;21.90;;
21018;SDS011;10667;51.056;3.732;2023-05-10T11:43:38;36.42;;;24.00;;
21018;SDS011;10667;51.056;3.732;2023-05-10T11:46:09;34.50;;;24.38;;
21018;SDS011;10667;51.056;3.732;2023-05-10T11:48:38;36.88;;;23.67;;
21018;SDS011;10667;51.056;3.732;2023-05-10T11:51:04;32.90;;;23.70;;
21018;SDS011;10667;51.056;3.732;2023-05-10T11:53:32;36.65;;;24.38;;
21018;SDS011;10667;51.056;3.732;2023-05-10T11:56:05;34.67;;;23.48;;
21018;SDS011;10667;51.056;3.732;2023-05-10T11:58:35;30.33;;;22.25;;
21018;SDS011;10667;51.056;3.732;2023-05-10T12:01:02;30.27;;;21.77;;
21018;SDS011;10667;51.056;3.732;2023-05-10T12:03:31;30.67;;;20.13;;
21018;SDS011;10667;51.056;3.732;2023-05-10T12:05:58;29.98;;;20.80;;
21018;SDS011;10667;51.056;3.732;2023-05-10T12:08:26;28.10;;;20.20;;
21018;SDS011;10667;51.056;3.732;2023-05-10T12:11:03;28.15;;;19.42;;
21018;SDS011;10667;51.056;3.732;2023-05-10T12:13:36;30.70;;;20.65;;
21018;SDS011;10667;51.056;3.732;2023-05-10T12:16:24;28.67;;;19.63;;
21018;SDS011;10667;51.056;3.732;2023-05-10T12:18:53;31.27;;;19.92;;
21018;SDS011;10667;51.056;3.732;2023-05-10T12:21:21;30.00;;;19.23;;
21018;SDS011;10667;51.056;3.732;2023-05-10T12:23:48;29.25;;;18.70;;
21018;SDS011;10667;51.056;3.732;2023-05-10T12:26:34;30.80;;;20.02;;
21018;SDS011;10667;51.056;3.732;2023-05-10T12:31:55;28.23;;;18.17;;
21018;SDS011;10667;51.056;3.732;2023-05-10T12:34:23;27.40;;;17.88;;
21018;SDS011;10667;51.056;3.732;2023-05-10T12:36:51;27.10;;;19.98;;
21018;SDS011;10667;51.056;3.732;2023-05-10T12:39:17;25.02;;;18.38;;
21018;SDS011;10667;51.056;3.732;2023-05-10T12:41:43;27.27;;;18.95;;
21018;SDS011;10667;51.056;3.732;2023-05-10T12:44:08;26.95;;;19.63;;
21018;SDS011;10667;51.056;3.732;2023-05-10T12:46:34;28.77;;;19.60;;
21018;SDS011;10667;51.056;3.732;2023-05-10T12:49:00;29.40;;;19.33;;
21018;SDS011;10667;51.056;3.732;2023-05-10T12:51:25;34.83;;;20.75;;
21018;SDS011;10667;51.056;3.732;2023-05-10T12:53:51;37.75;;;21.20;;
21018;SDS011;10667;51.056;3.732;2023-05-10T12:56:17;34.55;;;22.23;;
21018;SDS011;10667;51.056;3.732;2023-05-10T12:58:42;29.23;;;21.02;;
21018;SDS011;10667;51.056;3.732;2023-05-10T13:01:12;33.55;;;22.25;;
21018;SDS011;10667;51.056;3.732;2023-05-10T13:03:39;31.58;;;20.73;;
21018;SDS011;10667;51.056;3.732;2023-05-10T13:06:04;32.53;;;22.10;;
21018;SDS011;10667;51.056;3.732;2023-05-10T13:08:31;31.95;;;21.80;;
21018;SDS011;10667;51.056;3.732;2023-05-10T13:10:58;38.25;;;23.15;;
21018;SDS011;10667;51.056;3.732;2023-05-10T13:13:24;37.88;;;23.77;;
21018;SDS011;10667;51.056;3.732;2023-05-10T13:15:50;35.88;;;24.65;;
21018;SDS011;10667;51.056;3.732;2023-05-10T13:18:15;34.95;;;23.88;;
21018;SDS011;10667;51.056;3.732;2023-05-10T13:20:41;37.47;;;24.00;;
21018;SDS011;10667;51.056;3.732;2023-05-10T13:23:09;34.17;;;22.85;;
21018;SDS011;10667;51.056;3.732;2023-05-10T13:25:35;34.17;;;24.33;;
21018;SDS011;10667;51.056;3.732;2023-05-10T13:28:01;37.80;;;22.90;;
21018;SDS011;10667;51.056;3.732;2023-05-10T13:30:27;34.42;;;22.00;;
21018;SDS011;10667;51.056;3.732;2023-05-10T13:32:53;39.00;;;22.75;;
21018;SDS011;10667;51.056;3.732;2023-05-10T13:35:19;35.53;;;21.98;;
21018;SDS011;10667;51.056;3.732;2023-05-10T13:37:45;36.67;;;22.15;;
21018;SDS011;10667;51.056;3.732;2023-05-10T13:40:11;38.00;;;22.80;;
21018;SDS011;10667;51.056;3.732;2023-05-10T13:42:37;32.13;;;21.75;;
21018;SDS011;10667;51.056;3.732;2023-05-10T13:45:03;34.25;;;21.15;;
21018;SDS011;10667;51.056;3.732;2023-05-10T13:47:29;38.83;;;23.13;;
21018;SDS011;10667;51.056;3.732;2023-05-10T13:49:55;35.70;;;23.80;;
21018;SDS011;10667;51.056;3.732;2023-05-10T13:52:21;39.67;;;23.70;;
21018;SDS011;10667;51.056;3.732;2023-05-10T13:54:46;43.25;;;24.60;;
21018;SDS011;10667;51.056;3.732;2023-05-10T13:57:12;38.50;;;22.85;;
21018;SDS011;10667;51.056;3.732;2023-05-10T13:59:38;40.30;;;24.20;;
21018;SDS011;10667;51.056;3.732;2023-05-10T14:02:04;36.17;;;21.52;;
21018;SDS011;10667;51.056;3.732;2023-05-10T14:04:31;29.80;;;20.33;;
21018;SDS011;10667;51.056;3.732;2023-05-10T14:06:56;37.50;;;23.98;;
21018;SDS011;10667;51.056;3.732;2023-05-10T14:09:22;36.95;;;23.05;;
21018;SDS011;10667;51.056;3.732;2023-05-10T14:11:48;36.95;;;22.10;;
21018;SDS011;10667;51.056;3.732;2023-05-10T14:14:13;37.67;;;22.60;;
21018;SDS011;10667;51.056;3.732;2023-05-10T14:16:43;35.80;;;22.63;;
21018;SDS011;10667;51.056;3.732;2023-05-10T14:19:09;33.22;;;22.13;;
21018;SDS011;10667;51.056;3.732;2023-05-10T14:21:35;40.60;;;22.17;;
21018;SDS011;10667;51.056;3.732;2023-05-10T14:24:01;34.28;;;22.65;;
21018;SDS011;10667;51.056;3.732;2023-05-10T14:26:27;33.78;;;22.25;;
21018;SDS011;10667;51.056;3.732;2023-05-10T14:28:52;36.20;;;21.13;;
21018;SDS011;10667;51.056;3.732;2023-05-10T14:31:18;35.00;;;22.25;;
21018;SDS011;10667;51.056;3.732;2023-05-10T14:33:49;36.97;;;22.67;;
21018;SDS011;10667;51.056;3.732;2023-05-10T14:36:15;38.50;;;23.10;;
21018;SDS011;10667;51.056;3.732;2023-05-10T14:38:40;35.30;;;22.98;;
21018;SDS011;10667;51.056;3.732;2023-05-10T14:41:06;35.80;;;22.30;;
21018;SDS011;10667;51.056;3.732;2023-05-10T14:43:32;35.30;;;21.63;;
21018;SDS011;10667;51.056;3.732;2023-05-10T14:45:58;40.47;;;22.60;;
21018;SDS011;10667;51.056;3.732;2023-05-10T14:48:23;35.47;;;21.35;;
21018;SDS011;10667;51.056;3.732;2023-05-10T14:50:49;33.88;;;21.15;;
21018;SDS011;10667;51.056;3.732;2023-05-10T14:53:15;38.45;;;20.30;;
21018;SDS011;10667;51.056;3.732;2023-05-10T14:55:41;28.75;;;17.40;;
21018;SDS011;10667;51.056;3.732;2023-05-10T14:58:07;30.23;;;17.02;;
21018;SDS011;10667;51.056;3.732;2023-05-10T15:00:32;27.67;;;17.00;;
21018;SDS011;10667;51.056;3.732;2023-05-10T15:02:58;30.13;;;16.17;;
21018;SDS011;10667;51.056;3.732;2023-05-10T15:05:24;29.08;;;16.25;;
21018;SDS011;10667;51.056;3.732;2023-05-10T15:07:50;23.55;;;13.93;;
21018;SDS011;10667;51.056;3.732;2023-05-10T15:10:15;23.65;;;13.85;;
21018;SDS011;10667;51.056;3.732;2023-05-10T15:12:41;21.85;;;12.32;;
21018;SDS011;10667;51.056;3.732;2023-05-10T15:15:07;22.65;;;10.27;;
21018;SDS011;10667;51.056;3.732;2023-05-10T15:17:33;21.88;;;10.15;;